Aérodrome :
LOGIN :

S'inscrire | Disclaimer

   EN    FR    IT 

 










Légende :    VFR   VFR Marginal   IFR   IFR Intensif   IFR Très Intensif
Visi : 
Plafond : 
>= 8 km
>= 3000ft
5 à 8 km
1000 à 3000 ft
1500m à 5 km
500 à 1000 ft
800 à 1500m
200 à 500 ft
< 800m
< 200 ft
Symboles :   Orages  Brouillard  Fortes neiges  Fortes précipitations  Vent > 20 kt
SIGMETs :   Divers  Orages  Givrage  Turbulence  Onde Orograph.  Cendres Volcan.







- Altitude de l'aérodrome : 913 ft
- Voir les cartes d'approche


LFSX - Luxeuil

DERNIER METAR :
  • 200130Z AUTO 00000KT 8000 FEW003 OVC017 10/09 Q1022

METARs EXPIRÉS :
  • 200100Z AUTO 00000KT 7000 SCT017 BKN032 OVC076 09/09 Q1022
  • 200030Z AUTO 00000KT 8000 OVC018 10/10 Q1022
  • 200000Z AUTO 00000KT 8000 FEW008 BKN019 OVC074 10/09 Q1023
  • 192330Z AUTO 00000KT 8000 FEW006 OVC074 09/09 Q1023
  • 192300Z AUTO 08001KT 8000 FEW029 OVC072 09/09 Q1023

TAF TAF LFSX
Valide du 19 à 21h jusqu'au 20 à 21h UTC


192000Z 1921/2021 VRB03KT 4000 BR BKN007 OVC015
PROB30
TEMPO 1922/2003 0800 FG OVC005
BECMG 2006/2008 5000 SHRA SCT010TCU OVC015
BECMG 2015/2016 9999 NSW SCT040
Pas de NOTAMs connus pour ce terrain.



MET'MAP, la Météo Aéronautique d'un coup d'oeil ! - Copyright ORBIFLY Décembre 2007 - Disclaimer

ORBIFLY MET'MAP TEAM :

Programmation & Développement : Alexandra Zaïnal
Conception & Développement : Baudouin d'Aumeries
Co-Programmation & Développement : Marc-Olivier Méhu
Soutien technique & logistique : Manuel Goepfert

Contact : metmap@orbifly.com




SOURCES & CREDITS :

   NOAA